createdAt,value
2022-11-05T00:01:59.467Z,95.29
2022-11-05T00:04:44.282Z,94.93
2022-11-05T00:07:36.614Z,95.09
2022-11-05T00:10:13.488Z,95.45
2022-11-05T00:12:58.691Z,95.78
2022-11-05T00:15:43.457Z,95.67
2022-11-05T00:18:09.759Z,95.61
2022-11-05T00:20:36.136Z,95.19
2022-11-05T00:23:22.391Z,95.15
2022-11-05T00:26:03.356Z,95.32
2022-11-05T00:28:30.854Z,95.35
2022-11-05T00:31:15.116Z,95.08
2022-11-05T00:33:42.875Z,94.95
2022-11-05T00:36:10.544Z,94.77
2022-11-05T00:38:37.038Z,94.92
2022-11-05T00:41:03.329Z,95.57
2022-11-05T00:43:48.069Z,95.15
2022-11-05T00:46:14.416Z,95.06
2022-11-05T00:48:59.160Z,95.31
2022-11-05T00:51:25.426Z,95.57
2022-11-05T00:53:51.727Z,95.27
2022-11-05T00:56:18.133Z,95.49
2022-11-05T00:58:44.491Z,95.11
2022-11-05T01:01:11.550Z,95.20
2022-11-05T01:03:39.580Z,95.54
2022-11-05T01:06:14.548Z,95.35
2022-11-05T01:08:43.212Z,95.14
2022-11-05T01:11:34.080Z,95.00
2022-11-05T01:14:02.000Z,94.82
2022-11-05T01:16:28.357Z,94.68
2022-11-05T01:18:54.650Z,94.50
2022-11-05T01:21:21.003Z,94.51
2022-11-05T01:23:47.355Z,94.43
2022-11-05T01:26:13.696Z,94.50
2022-11-05T01:28:40.176Z,94.60
2022-11-05T01:31:06.593Z,94.37
2022-11-05T01:33:33.027Z,94.09
2022-11-05T01:35:59.375Z,94.16
2022-11-05T01:38:25.650Z,94.40
2022-11-05T01:40:52.083Z,94.49
2022-11-05T01:43:23.582Z,94.21
2022-11-05T01:45:52.931Z,94.76
2022-11-05T01:48:31.881Z,94.91
2022-11-05T01:51:06.854Z,94.81
2022-11-05T01:53:47.395Z,94.39
2022-11-05T01:56:24.173Z,93.67
2022-11-05T01:59:08.755Z,93.90
2022-11-05T02:01:35.750Z,93.62
2022-11-05T02:04:06.782Z,93.92
2022-11-05T02:06:36.950Z,94.30
2022-11-05T02:09:07.108Z,94.70
2022-11-05T02:11:33.996Z,95.36
2022-11-05T02:14:00.683Z,95.51
2022-11-05T02:16:26.945Z,95.28
2022-11-05T02:19:05.120Z,94.98
2022-11-05T02:21:52.811Z,95.06
2022-11-05T02:24:49.721Z,94.59
2022-11-05T02:27:32.554Z,94.09
2022-11-05T02:30:05.172Z,93.98
2022-11-05T02:32:43.361Z,93.80
2022-11-05T02:35:41.577Z,93.96
2022-11-05T02:38:25.462Z,94.04
2022-11-05T02:41:08.538Z,93.73
2022-11-05T02:43:52.634Z,93.94
2022-11-05T02:46:29.541Z,93.91
2022-11-05T02:49:06.510Z,94.05
2022-11-05T02:51:49.879Z,94.30
2022-11-05T02:54:22.328Z,94.39
2022-11-05T02:56:53.189Z,93.95
2022-11-05T02:59:19.625Z,94.73
2022-11-05T03:01:47.487Z,94.72
2022-11-05T03:04:17.346Z,94.11
2022-11-05T03:07:22.245Z,93.87
2022-11-05T03:10:13.884Z,93.97
2022-11-05T03:12:47.293Z,93.85
2022-11-05T03:15:35.382Z,94.13
2022-11-05T03:18:43.165Z,93.94
2022-11-05T03:21:17.893Z,94.15
2022-11-05T03:23:55.211Z,94.03
2022-11-05T03:26:31.192Z,94.33
2022-11-05T03:29:08.679Z,93.85
2022-11-05T03:31:39.630Z,94.26
2022-11-05T03:34:08.628Z,94.09
2022-11-05T03:36:42.112Z,94.24
2022-11-05T03:39:14.069Z,94.22
2022-11-05T03:41:43.882Z,93.94
2022-11-05T03:44:14.795Z,94.09
2022-11-05T03:46:49.143Z,94.28
2022-11-05T03:49:27.651Z,94.21
2022-11-05T03:52:02.991Z,93.79
2022-11-05T03:54:29.725Z,93.55
2022-11-05T03:57:08.770Z,93.47
2022-11-05T03:59:46.447Z,93.11
2022-11-05T04:02:15.220Z,93.34
2022-11-05T04:04:42.082Z,93.29
2022-11-05T04:07:28.316Z,93.71
2022-11-05T04:10:13.014Z,93.86
2022-11-05T04:12:57.772Z,93.64
2022-11-05T04:15:24.677Z,93.75
2022-11-05T04:17:51.226Z,93.87
2022-11-05T04:20:35.912Z,93.55
2022-11-05T04:23:23.766Z,93.55
2022-11-05T04:25:50.426Z,93.17
2022-11-05T04:28:17.000Z,92.99
2022-11-05T04:30:44.460Z,92.78
2022-11-05T04:33:14.825Z,92.58
2022-11-05T04:35:43.775Z,92.90
2022-11-05T04:38:15.476Z,92.65
2022-11-05T04:40:41.894Z,92.84
2022-11-05T04:43:14.652Z,92.97
2022-11-05T04:45:41.907Z,92.96
2022-11-05T04:48:08.254Z,93.05
2022-11-05T04:50:35.108Z,93.08
2022-11-05T04:53:01.435Z,92.60
2022-11-05T04:55:28.382Z,92.29
2022-11-05T04:57:54.945Z,92.58
2022-11-05T05:00:23.079Z,93.44
2022-11-05T05:02:50.041Z,93.94
2022-11-05T05:05:16.655Z,93.38
2022-11-05T05:07:43.029Z,93.29
2022-11-05T05:10:10.778Z,93.10
2022-11-05T05:12:37.263Z,93.06
2022-11-05T05:15:04.288Z,93.04
2022-11-05T05:17:30.660Z,93.37
2022-11-05T05:20:15.566Z,93.04
2022-11-05T05:22:41.958Z,92.76
2022-11-05T05:25:08.451Z,92.93
2022-11-05T05:27:34.832Z,92.20
2022-11-05T05:30:01.183Z,92.41
2022-11-05T05:32:27.738Z,92.50
2022-11-05T05:34:54.070Z,92.16
2022-11-05T05:37:20.510Z,92.93
2022-11-05T05:39:47.775Z,93.08
2022-11-05T05:42:14.090Z,93.24
2022-11-05T05:44:40.480Z,92.88
2022-11-05T05:47:06.786Z,92.75
2022-11-05T05:49:33.079Z,93.07
2022-11-05T05:51:59.334Z,92.98
2022-11-05T05:54:31.760Z,93.62
2022-11-05T05:56:59.090Z,93.47
2022-11-05T05:59:25.400Z,93.50
2022-11-05T06:01:51.864Z,93.46
2022-11-05T06:04:18.304Z,93.62
2022-11-05T06:06:46.789Z,93.13
2022-11-05T06:09:13.992Z,93.21
2022-11-05T06:11:40.664Z,93.63
2022-11-05T06:14:10.257Z,93.43
2022-11-05T06:16:38.780Z,93.43
2022-11-05T06:19:06.367Z,93.33
2022-11-05T06:21:33.000Z,93.47
2022-11-05T06:24:00.545Z,93.38
2022-11-05T06:26:26.826Z,93.39
2022-11-05T06:28:53.147Z,93.61
2022-11-05T06:31:19.954Z,93.78
2022-11-05T06:33:47.223Z,93.64
2022-11-05T06:36:18.952Z,93.83
2022-11-05T06:38:45.376Z,94.11
2022-11-05T06:41:11.839Z,93.92
2022-11-05T06:43:38.624Z,94.09
2022-11-05T06:46:05.046Z,94.03
2022-11-05T06:48:31.375Z,93.73
2022-11-05T06:50:58.154Z,93.90
2022-11-05T06:53:25.045Z,93.70
2022-11-05T06:55:51.407Z,94.12
2022-11-05T06:58:17.863Z,94.35
2022-11-05T07:00:44.269Z,94.19
2022-11-05T07:03:12.301Z,94.32
2022-11-05T07:05:43.409Z,94.01
2022-11-05T07:08:09.751Z,94.51
2022-11-05T07:10:36.114Z,94.36
2022-11-05T07:13:06.754Z,94.34
2022-11-05T07:15:34.917Z,94.34
2022-11-05T07:18:01.574Z,94.99
2022-11-05T07:20:33.252Z,95.24
2022-11-05T07:23:06.170Z,94.95
2022-11-05T07:25:33.717Z,95.27
2022-11-05T07:28:00.731Z,95.02
2022-11-05T07:30:27.947Z,95.15
2022-11-05T07:32:54.611Z,94.92
2022-11-05T07:35:21.316Z,94.50
2022-11-05T07:37:50.007Z,94.26
2022-11-05T07:40:20.909Z,94.32
2022-11-05T07:42:50.285Z,94.12
2022-11-05T07:45:17.375Z,94.48
2022-11-05T07:47:58.142Z,94.37
2022-11-05T07:50:27.217Z,94.38
2022-11-05T07:52:53.838Z,94.67
2022-11-05T07:55:20.362Z,95.24
2022-11-05T07:57:48.859Z,95.20
2022-11-05T08:00:18.051Z,95.29
2022-11-05T08:02:44.723Z,95.75
2022-11-05T08:05:11.317Z,95.69
2022-11-05T08:07:37.625Z,95.60
2022-11-05T08:10:04.750Z,95.67
2022-11-05T08:12:32.293Z,95.33
2022-11-05T08:14:58.707Z,95.11
2022-11-05T08:17:25.046Z,95.01
2022-11-05T08:19:51.560Z,94.62
2022-11-05T08:22:17.927Z,94.84
2022-11-05T08:24:44.238Z,94.81
2022-11-05T08:27:10.509Z,94.79
2022-11-05T08:29:36.789Z,94.81
2022-11-05T08:32:03.210Z,95.13
2022-11-05T08:34:29.504Z,94.90
2022-11-05T08:36:55.779Z,94.78
2022-11-05T08:39:22.126Z,94.99
2022-11-05T08:41:48.591Z,94.63
2022-11-05T08:44:14.943Z,95.04
2022-11-05T08:46:41.787Z,94.45
2022-11-05T08:49:08.377Z,94.25
2022-11-05T08:51:34.830Z,94.20
2022-11-05T08:54:01.121Z,93.86
2022-11-05T08:56:27.415Z,92.89
2022-11-05T08:58:53.856Z,92.38
2022-11-05T09:01:20.304Z,91.06
2022-11-05T09:03:49.513Z,90.74
2022-11-05T09:06:15.804Z,89.76
2022-11-05T09:08:42.163Z,88.92
2022-11-05T09:11:08.504Z,88.08
2022-11-05T09:13:34.912Z,87.23
2022-11-05T09:16:01.283Z,86.84
2022-11-05T09:18:28.244Z,85.94
2022-11-05T09:20:54.608Z,84.41
2022-11-05T09:23:20.973Z,83.79
2022-11-05T09:25:47.631Z,84.68
2022-11-05T09:28:24.455Z,84.70
2022-11-05T09:30:52.643Z,83.11
2022-11-05T09:33:21.853Z,82.97
2022-11-05T09:35:48.301Z,82.66
2022-11-05T09:38:14.713Z,82.73
2022-11-05T09:41:04.374Z,79.58
2022-11-05T09:43:40.327Z,80.97
2022-11-05T09:46:13.059Z,79.13
2022-11-05T09:48:42.233Z,78.44
2022-11-05T09:51:17.965Z,75.96
2022-11-05T09:53:48.396Z,74.60
2022-11-05T09:56:30.462Z,71.64
2022-11-05T09:59:02.290Z,70.52
2022-11-05T10:01:35.791Z,70.86
2022-11-05T10:04:09.160Z,69.51
2022-11-05T10:06:41.756Z,66.33
2022-11-05T10:09:16.146Z,65.18
2022-11-05T10:11:48.155Z,62.58
2022-11-05T10:14:25.576Z,62.93
2022-11-05T10:17:01.445Z,63.89
2022-11-05T10:19:43.175Z,62.65
2022-11-05T10:22:16.430Z,61.31
2022-11-05T10:24:46.320Z,62.44
2022-11-05T10:27:35.418Z,63.52
2022-11-05T10:30:01.995Z,61.91
2022-11-05T10:32:33.747Z,64.72
2022-11-05T10:35:02.538Z,64.42
2022-11-05T10:37:30.480Z,64.26
2022-11-05T10:39:57.114Z,64.40
2022-11-05T10:42:42.085Z,66.00
2022-11-05T10:45:25.428Z,66.94
2022-11-05T10:48:13.017Z,65.74
2022-11-05T10:50:39.893Z,69.02
2022-11-05T10:53:20.602Z,69.29
2022-11-05T10:55:49.935Z,69.14
2022-11-05T10:58:16.191Z,68.90
2022-11-05T11:00:44.948Z,72.79
2022-11-05T11:03:42.366Z,73.16
2022-11-05T11:06:23.785Z,70.40
2022-11-05T11:08:52.222Z,73.19
2022-11-05T11:11:34.366Z,70.97
2022-11-05T11:14:14.028Z,72.66
2022-11-05T11:16:45.955Z,71.46
2022-11-05T11:19:38.725Z,71.55
2022-11-05T11:22:04.980Z,70.31
2022-11-05T11:24:41.341Z,67.75
2022-11-05T11:27:19.132Z,66.78
2022-11-05T11:29:50.904Z,70.44
2022-11-05T11:32:20.450Z,67.33
2022-11-05T11:34:52.114Z,67.59
2022-11-05T11:37:28.496Z,68.55
2022-11-05T11:40:12.956Z,70.17
2022-11-05T11:42:41.388Z,70.25
2022-11-05T11:45:18.067Z,70.70
2022-11-05T11:47:49.854Z,70.20
2022-11-05T11:50:33.491Z,71.75
2022-11-05T11:53:21.193Z,70.27
2022-11-05T11:55:59.543Z,72.89
2022-11-05T11:58:56.006Z,73.70
2022-11-05T12:01:53.112Z,71.54
2022-11-05T12:05:07.794Z,73.49
2022-11-05T12:07:47.949Z,73.18
2022-11-05T12:10:46.366Z,72.28
2022-11-05T12:13:18.742Z,70.88
2022-11-05T12:15:53.130Z,66.12
2022-11-05T12:18:33.967Z,65.96
2022-11-05T12:25:51.664Z,27.20
2022-11-05T12:28:36.065Z,33.17
2022-11-05T12:31:05.533Z,38.20
2022-11-05T12:33:45.650Z,42.82
2022-11-05T12:36:22.758Z,45.38
2022-11-05T12:39:24.139Z,49.39
2022-11-05T12:42:02.527Z,51.30
2022-11-05T12:44:36.516Z,53.46
2022-11-05T12:47:10.081Z,55.16
2022-11-05T12:49:46.604Z,56.17
2022-11-05T12:52:12.862Z,58.05
2022-11-05T12:55:09.168Z,58.73
2022-11-05T12:57:40.060Z,59.43
2022-11-05T13:00:18.618Z,60.04
2022-11-05T13:02:54.544Z,60.52
2022-11-05T13:05:41.541Z,59.86
2022-11-05T13:08:30.326Z,60.37
2022-11-05T13:11:10.215Z,60.14
2022-11-05T13:13:42.019Z,61.03
2022-11-05T13:16:30.683Z,61.77
2022-11-05T13:19:02.967Z,61.14
2022-11-05T13:21:30.508Z,60.39
2022-11-05T13:24:04.944Z,60.20
2022-11-05T13:27:10.868Z,60.80
2022-11-05T13:29:53.579Z,62.39
2022-11-05T13:32:31.796Z,62.17
2022-11-05T13:35:04.741Z,62.25
2022-11-05T13:37:54.806Z,61.67
2022-11-05T13:40:36.515Z,62.76
2022-11-05T13:43:12.365Z,61.49
2022-11-05T13:46:06.158Z,64.09
2022-11-05T13:48:51.891Z,60.72
2022-11-05T13:51:38.628Z,60.64
2022-11-05T13:54:36.664Z,61.37
2022-11-05T13:57:41.198Z,61.77
2022-11-05T14:00:16.912Z,61.19
2022-11-05T14:02:54.200Z,62.31
2022-11-05T14:05:31.384Z,64.07
2022-11-05T14:08:00.587Z,63.49
2022-11-05T14:10:43.091Z,61.79
2022-11-05T14:13:28.875Z,60.74
2022-11-05T14:16:00.055Z,61.51
2022-11-05T14:18:39.572Z,61.88
2022-11-05T14:21:28.778Z,65.13
2022-11-05T14:23:57.534Z,63.25
2022-11-05T14:26:29.683Z,62.27
2022-11-05T14:29:05.165Z,60.33
2022-11-05T14:32:07.001Z,61.21
2022-11-05T14:34:53.502Z,61.07
2022-11-05T14:37:24.218Z,63.71
2022-11-05T14:39:51.158Z,61.50
2022-11-05T14:42:24.471Z,62.91
2022-11-05T14:44:58.431Z,63.87
2022-11-05T14:47:28.673Z,60.14
2022-11-05T14:50:01.756Z,60.69
2022-11-05T14:52:28.778Z,61.38
2022-11-05T14:54:58.026Z,63.73
2022-11-05T14:57:42.454Z,64.83
2022-11-05T15:00:40.480Z,65.53
2022-11-05T15:03:33.696Z,64.76
2022-11-05T15:06:07.671Z,63.65
2022-11-05T15:08:54.232Z,66.96
2022-11-05T15:11:29.345Z,66.01
2022-11-05T15:13:55.596Z,65.06
2022-11-05T15:16:30.510Z,63.96
2022-11-05T15:18:58.115Z,65.60
2022-11-05T15:21:25.179Z,66.50
2022-11-05T15:23:56.688Z,66.69
2022-11-05T15:26:42.902Z,67.63
2022-11-05T15:29:22.143Z,68.14
2022-11-05T15:31:49.224Z,68.16
2022-11-05T15:34:19.448Z,68.05
2022-11-05T15:36:50.662Z,67.38
2022-11-05T15:39:29.331Z,66.45
2022-11-05T15:41:57.129Z,66.74
2022-11-05T15:44:32.895Z,68.07
2022-11-05T15:47:13.035Z,68.10
2022-11-05T15:49:54.439Z,68.93
2022-11-05T15:52:31.035Z,68.66
2022-11-05T15:55:25.349Z,68.71
2022-11-05T15:58:10.664Z,69.63
2022-11-05T16:00:37.458Z,69.69
2022-11-05T16:03:14.639Z,69.96
2022-11-05T16:05:46.307Z,69.69
2022-11-05T16:08:18.844Z,69.25
2022-11-05T16:10:51.654Z,69.88
2022-11-05T16:13:38.338Z,69.30
2022-11-05T16:16:13.999Z,70.63
2022-11-05T16:18:41.361Z,70.87
2022-11-05T16:21:15.919Z,70.19
2022-11-05T16:23:53.889Z,70.09
2022-11-05T16:27:00.618Z,70.32
2022-11-05T16:29:53.670Z,70.86
2022-11-05T16:32:30.797Z,70.96
2022-11-05T16:35:01.284Z,71.37
2022-11-05T16:37:32.343Z,71.17
2022-11-05T16:39:58.693Z,71.40
2022-11-05T16:42:26.018Z,71.67
2022-11-05T16:44:54.873Z,72.40
2022-11-05T16:47:22.442Z,72.93
2022-11-05T16:49:49.732Z,73.17
2022-11-05T16:52:16.505Z,72.53
2022-11-05T16:54:42.847Z,72.38
2022-11-05T16:57:26.891Z,73.22
2022-11-05T16:59:54.522Z,73.73
2022-11-05T17:02:21.327Z,73.80
2022-11-05T17:04:47.983Z,73.81
2022-11-05T17:07:14.408Z,74.43
2022-11-05T17:09:40.737Z,73.96
2022-11-05T17:12:07.122Z,74.74
2022-11-05T17:14:33.449Z,74.78
2022-11-05T17:17:01.094Z,74.47
2022-11-05T17:19:27.794Z,74.63
2022-11-05T17:21:54.198Z,75.39
2022-11-05T17:24:20.542Z,75.19
2022-11-05T17:26:46.986Z,74.89
2022-11-05T17:29:13.438Z,75.28
2022-11-05T17:31:40.852Z,75.00
2022-11-05T17:34:08.780Z,74.75
2022-11-05T17:36:35.199Z,75.26
2022-11-05T17:39:01.658Z,75.69
2022-11-05T17:41:28.093Z,75.21
2022-11-05T17:43:56.595Z,75.71
2022-11-05T17:46:23.540Z,75.00
2022-11-05T17:48:50.063Z,75.32
2022-11-05T17:51:18.492Z,75.76
2022-11-05T17:53:47.351Z,76.26
2022-11-05T17:56:24.596Z,75.73
2022-11-05T17:58:55.775Z,75.60
2022-11-05T18:01:34.582Z,75.97
2022-11-05T18:04:07.175Z,76.61
2022-11-05T18:06:35.512Z,75.34
2022-11-05T18:09:02.089Z,75.99
2022-11-05T18:11:28.435Z,75.43
2022-11-05T18:13:54.828Z,75.45
2022-11-05T18:16:21.196Z,76.26
2022-11-05T18:18:49.127Z,75.65
2022-11-05T18:21:15.702Z,75.02
2022-11-05T18:23:42.487Z,76.03
2022-11-05T18:26:13.885Z,75.76
2022-11-05T18:28:40.417Z,76.78
2022-11-05T18:31:20.536Z,75.87
2022-11-05T18:33:48.172Z,77.09
2022-11-05T18:36:19.083Z,77.27
2022-11-05T18:38:45.787Z,76.82
2022-11-05T18:41:12.136Z,76.58
2022-11-05T18:43:38.418Z,77.31
2022-11-05T18:46:06.066Z,77.86
2022-11-05T18:48:32.401Z,77.41
2022-11-05T18:51:01.818Z,77.12
2022-11-05T18:53:28.586Z,77.04
2022-11-05T18:55:54.938Z,77.17
2022-11-05T18:58:21.272Z,77.22
2022-11-05T19:00:47.656Z,77.77
2022-11-05T19:03:13.971Z,77.47
2022-11-05T19:05:40.259Z,77.39
2022-11-05T19:08:06.646Z,77.48
2022-11-05T19:10:33.212Z,77.71
2022-11-05T19:12:59.560Z,77.74
2022-11-05T19:15:25.995Z,78.04
2022-11-05T19:17:52.276Z,77.47
2022-11-05T19:20:18.633Z,78.13
2022-11-05T19:22:44.954Z,77.50
2022-11-05T19:25:11.777Z,77.95
2022-11-05T19:27:38.584Z,77.29
2022-11-05T19:30:05.334Z,78.25
2022-11-05T19:32:31.647Z,77.38
2022-11-05T19:34:57.996Z,78.28
2022-11-05T19:37:24.292Z,78.33
2022-11-05T19:39:50.639Z,77.74
2022-11-05T19:42:16.961Z,78.65
2022-11-05T19:44:43.689Z,78.65
2022-11-05T19:47:10.239Z,78.53
2022-11-05T19:49:36.560Z,79.24
2022-11-05T19:52:02.867Z,79.24
2022-11-05T19:54:29.238Z,79.39
2022-11-05T19:56:55.611Z,78.89
2022-11-05T19:59:21.910Z,78.98
2022-11-05T20:01:48.418Z,78.95
2022-11-05T20:04:15.213Z,79.05
2022-11-05T20:06:41.559Z,79.34
2022-11-05T20:09:27.144Z,79.34
2022-11-05T20:11:56.092Z,79.42
2022-11-05T20:14:24.371Z,79.74
2022-11-05T20:16:51.234Z,80.03
2022-11-05T20:19:20.823Z,80.20
2022-11-05T20:21:47.716Z,80.13
2022-11-05T20:24:24.915Z,79.64
2022-11-05T20:26:53.563Z,80.26
2022-11-05T20:29:20.016Z,80.42
2022-11-05T20:31:46.486Z,80.86
2022-11-05T20:34:12.857Z,80.24
2022-11-05T20:36:39.448Z,80.65
2022-11-05T20:39:05.829Z,80.81
2022-11-05T20:41:33.171Z,80.46
2022-11-05T20:43:59.549Z,81.04
2022-11-05T20:46:25.881Z,80.80
2022-11-05T20:48:53.859Z,80.75
2022-11-05T20:51:22.498Z,81.36
2022-11-05T20:53:49.283Z,81.08
2022-11-05T20:56:22.548Z,81.08
2022-11-05T20:58:49.296Z,80.73
2022-11-05T21:01:16.750Z,81.25
2022-11-05T21:03:45.170Z,81.45
2022-11-05T21:06:11.922Z,80.92
2022-11-05T21:08:38.287Z,81.45
2022-11-05T21:11:05.199Z,81.29
2022-11-05T21:13:31.565Z,81.46
2022-11-05T21:15:59.693Z,81.84
2022-11-05T21:18:28.401Z,81.72
2022-11-05T21:20:55.619Z,81.79
2022-11-05T21:23:21.935Z,81.85
2022-11-05T21:25:48.309Z,82.11
2022-11-05T21:28:16.096Z,82.36
2022-11-05T21:30:47.559Z,82.50
2022-11-05T21:33:15.378Z,82.02
2022-11-05T21:35:46.695Z,82.63
2022-11-05T21:38:15.654Z,82.34
2022-11-05T21:40:42.442Z,82.04
2022-11-05T21:43:09.029Z,82.02
2022-11-05T21:45:38.727Z,81.99
2022-11-05T21:48:05.512Z,82.02
2022-11-05T21:50:50.220Z,82.14
2022-11-05T21:53:35.971Z,82.26
2022-11-05T21:56:25.824Z,82.66
2022-11-05T21:59:10.635Z,82.11
2022-11-05T22:01:37.028Z,82.72
2022-11-05T22:04:03.564Z,82.96
2022-11-05T22:06:32.779Z,83.11
2022-11-05T22:08:59.182Z,83.42
2022-11-05T22:11:25.560Z,83.58
2022-11-05T22:13:52.609Z,83.30
2022-11-05T22:16:18.872Z,83.66
2022-11-05T22:18:45.163Z,83.95
2022-11-05T22:21:18.496Z,83.73
2022-11-05T22:23:44.870Z,84.04
2022-11-05T22:26:11.243Z,83.90
2022-11-05T22:28:37.543Z,83.95
2022-11-05T22:31:03.873Z,84.37
2022-11-05T22:33:30.971Z,84.76
2022-11-05T22:35:57.275Z,84.47
2022-11-05T22:38:23.563Z,84.55
2022-11-05T22:40:49.854Z,84.84
2022-11-05T22:43:16.173Z,84.66
2022-11-05T22:45:43.734Z,85.05
2022-11-05T22:48:10.405Z,84.76
2022-11-05T22:50:37.066Z,84.91
2022-11-05T22:53:03.524Z,85.25
2022-11-05T22:55:29.806Z,85.74
2022-11-05T22:57:56.256Z,85.14
2022-11-05T23:00:34.415Z,85.39
2022-11-05T23:03:01.269Z,85.83
2022-11-05T23:05:27.799Z,85.37
2022-11-05T23:08:12.865Z,85.98
2022-11-05T23:10:58.398Z,85.92
2022-11-05T23:13:24.691Z,85.73
2022-11-05T23:16:09.405Z,85.77
2022-11-05T23:18:54.124Z,86.29
2022-11-05T23:21:38.995Z,86.00
2022-11-05T23:24:05.868Z,86.07
2022-11-05T23:26:52.466Z,85.96
2022-11-05T23:29:23.456Z,86.26
2022-11-05T23:32:09.226Z,86.63
2022-11-05T23:34:36.334Z,86.54
2022-11-05T23:37:21.862Z,86.78
2022-11-05T23:39:48.250Z,86.34
2022-11-05T23:42:32.945Z,86.84
2022-11-05T23:45:17.701Z,86.79
2022-11-05T23:48:02.976Z,86.52
2022-11-05T23:50:33.221Z,86.88
2022-11-05T23:53:03.448Z,86.73
2022-11-05T23:55:30.393Z,86.14
2022-11-05T23:57:56.780Z,86.46
